sensor_id;sensor_type;location;lat;lon;timestamp;pressure;altitude;pressure_sealevel;temperature
70668;BMP280;58242;51.250;-1.118;2022-11-30T00:00:12;100962.06;;;13.30
70668;BMP280;58242;51.250;-1.118;2022-11-30T00:02:37;100964.25;;;13.20
70668;BMP280;58242;51.250;-1.118;2022-11-30T00:05:03;100958.16;;;13.11
70668;BMP280;58242;51.250;-1.118;2022-11-30T00:07:28;100954.38;;;13.04
70668;BMP280;58242;51.250;-1.118;2022-11-30T00:09:54;100949.47;;;12.98
70668;BMP280;58242;51.250;-1.118;2022-11-30T00:12:19;100960.69;;;12.91
70668;BMP280;58242;51.250;-1.118;2022-11-30T00:14:44;100952.78;;;12.86
70668;BMP280;58242;51.250;-1.118;2022-11-30T00:17:10;100952.63;;;12.83
70668;BMP280;58242;51.250;-1.118;2022-11-30T00:19:35;100959.75;;;12.79
70668;BMP280;58242;51.250;-1.118;2022-11-30T00:22:01;100960.38;;;12.76
70668;BMP280;58242;51.250;-1.118;2022-11-30T00:24:26;100955.66;;;12.73
70668;BMP280;58242;51.250;-1.118;2022-11-30T00:26:51;100964.31;;;12.70
70668;BMP280;58242;51.250;-1.118;2022-11-30T00:29:16;100967.97;;;12.66
70668;BMP280;58242;51.250;-1.118;2022-11-30T00:31:42;100965.59;;;12.65
70668;BMP280;58242;51.250;-1.118;2022-11-30T00:34:07;100966.69;;;12.64
70668;BMP280;58242;51.250;-1.118;2022-11-30T00:36:32;100962.91;;;12.65
70668;BMP280;58242;51.250;-1.118;2022-11-30T00:38:57;100961.47;;;12.67
70668;BMP280;58242;51.250;-1.118;2022-11-30T00:41:23;100966.22;;;12.70
70668;BMP280;58242;51.250;-1.118;2022-11-30T00:43:48;100967.47;;;12.72
70668;BMP280;58242;51.250;-1.118;2022-11-30T00:46:14;100947.59;;;12.73
70668;BMP280;58242;51.250;-1.118;2022-11-30T00:48:39;100957.69;;;12.76
70668;BMP280;58242;51.250;-1.118;2022-11-30T00:51:06;100954.69;;;12.78
70668;BMP280;58242;51.250;-1.118;2022-11-30T00:53:32;100954.38;;;12.79
70668;BMP280;58242;51.250;-1.118;2022-11-30T00:55:57;100951.06;;;12.82
70668;BMP280;58242;51.250;-1.118;2022-11-30T00:58:23;100948.84;;;12.84
70668;BMP280;58242;51.250;-1.118;2022-11-30T01:00:48;100949.31;;;12.86
70668;BMP280;58242;51.250;-1.118;2022-11-30T01:03:14;100946.78;;;12.89
70668;BMP280;58242;51.250;-1.118;2022-11-30T01:05:40;100951.03;;;12.90
70668;BMP280;58242;51.250;-1.118;2022-11-30T01:08:08;100957.66;;;12.93
70668;BMP280;58242;51.250;-1.118;2022-11-30T01:10:36;100952.78;;;12.95
70668;BMP280;58242;51.250;-1.118;2022-11-30T01:13:02;100951.34;;;12.97
70668;BMP280;58242;51.250;-1.118;2022-11-30T01:15:27;100950.25;;;12.98
70668;BMP280;58242;51.250;-1.118;2022-11-30T01:17:53;100947.25;;;13.00
70668;BMP280;58242;51.250;-1.118;2022-11-30T01:20:18;100946.63;;;13.02
70668;BMP280;58242;51.250;-1.118;2022-11-30T01:22:43;100952.44;;;13.04
70668;BMP280;58242;51.250;-1.118;2022-11-30T01:25:09;100952.13;;;13.06
70668;BMP280;58242;51.250;-1.118;2022-11-30T01:27:34;100954.53;;;13.07
70668;BMP280;58242;51.250;-1.118;2022-11-30T01:29:59;100948.03;;;13.08
70668;BMP280;58242;51.250;-1.118;2022-11-30T01:32:25;100946.63;;;13.11
70668;BMP280;58242;51.250;-1.118;2022-11-30T01:34:50;100951.34;;;13.14
70668;BMP280;58242;51.250;-1.118;2022-11-30T01:37:15;100941.41;;;13.14
70668;BMP280;58242;51.250;-1.118;2022-11-30T01:39:41;100949.91;;;13.16
70668;BMP280;58242;51.250;-1.118;2022-11-30T01:42:13;100946.13;;;13.17
70668;BMP280;58242;51.250;-1.118;2022-11-30T01:47:19;100943.13;;;13.18
70668;BMP280;58242;51.250;-1.118;2022-11-30T01:49:50;100947.69;;;13.18
70668;BMP280;58242;51.250;-1.118;2022-11-30T01:52:25;100944.53;;;13.16
70668;BMP280;58242;51.250;-1.118;2022-11-30T01:54:56;100949.44;;;13.14
70668;BMP280;58242;51.250;-1.118;2022-11-30T01:57:30;100950.53;;;13.13
70668;BMP280;58242;51.250;-1.118;2022-11-30T02:00:00;100956.41;;;13.15
70668;BMP280;58242;51.250;-1.118;2022-11-30T02:02:32;100949.44;;;13.14
70668;BMP280;58242;51.250;-1.118;2022-11-30T02:05:01;100951.19;;;13.10
70668;BMP280;58242;51.250;-1.118;2022-11-30T02:07:27;100949.47;;;13.06
70668;BMP280;58242;51.250;-1.118;2022-11-30T02:09:52;100953.88;;;13.02
70668;BMP280;58242;51.250;-1.118;2022-11-30T02:12:38;100962.44;;;12.96
70668;BMP280;58242;51.250;-1.118;2022-11-30T02:15:09;100958.00;;;12.91
70668;BMP280;58242;51.250;-1.118;2022-11-30T02:17:51;100954.81;;;12.89
70668;BMP280;58242;51.250;-1.118;2022-11-30T02:29:09;100973.31;;;12.74
70668;BMP280;58242;51.250;-1.118;2022-11-30T02:31:53;100968.56;;;12.71
70668;BMP280;58242;51.250;-1.118;2022-11-30T02:34:21;100966.22;;;12.70
70668;BMP280;58242;51.250;-1.118;2022-11-30T02:36:48;100973.00;;;12.67
70668;BMP280;58242;51.250;-1.118;2022-11-30T02:39:13;100974.09;;;12.66
70668;BMP280;58242;51.250;-1.118;2022-11-30T02:41:39;100966.03;;;12.66
70668;BMP280;58242;51.250;-1.118;2022-11-30T02:44:08;100966.84;;;12.67
70668;BMP280;58242;51.250;-1.118;2022-11-30T02:46:38;100966.81;;;12.59
70668;BMP280;58242;51.250;-1.118;2022-11-30T02:49:12;100971.25;;;12.63
70668;BMP280;58242;51.250;-1.118;2022-11-30T02:51:41;100970.94;;;12.65
70668;BMP280;58242;51.250;-1.118;2022-11-30T02:54:08;100971.75;;;12.65
70668;BMP280;58242;51.250;-1.118;2022-11-30T02:56:33;100968.72;;;12.66
70668;BMP280;58242;51.250;-1.118;2022-11-30T02:58:59;100967.63;;;12.67
70668;BMP280;58242;51.250;-1.118;2022-11-30T03:01:24;100974.28;;;12.70
70668;BMP280;58242;51.250;-1.118;2022-11-30T03:03:49;100976.31;;;12.73
70668;BMP280;58242;51.250;-1.118;2022-11-30T03:06:15;100978.06;;;12.77
70668;BMP280;58242;51.250;-1.118;2022-11-30T03:08:40;100976.63;;;12.80
70668;BMP280;58242;51.250;-1.118;2022-11-30T03:11:05;100966.34;;;12.82
70668;BMP280;58242;51.250;-1.118;2022-11-30T03:13:32;100956.09;;;12.83
70668;BMP280;58242;51.250;-1.118;2022-11-30T03:15:57;100961.94;;;12.85
70668;BMP280;58242;51.250;-1.118;2022-11-30T03:18:22;100975.06;;;12.87
70668;BMP280;58242;51.250;-1.118;2022-11-30T03:20:47;100970.16;;;12.89
70668;BMP280;58242;51.250;-1.118;2022-11-30T03:23:13;100965.56;;;12.89
70668;BMP280;58242;51.250;-1.118;2022-11-30T03:25:38;100961.78;;;12.90
70668;BMP280;58242;51.250;-1.118;2022-11-30T03:28:03;100967.31;;;12.94
70668;BMP280;58242;51.250;-1.118;2022-11-30T03:30:29;100972.66;;;12.94
70668;BMP280;58242;51.250;-1.118;2022-11-30T03:32:54;100967.16;;;12.90
70668;BMP280;58242;51.250;-1.118;2022-11-30T03:35:20;100978.97;;;12.89
70668;BMP280;58242;51.250;-1.118;2022-11-30T03:37:46;100975.06;;;12.87
70668;BMP280;58242;51.250;-1.118;2022-11-30T03:40:11;100975.34;;;12.85
70668;BMP280;58242;51.250;-1.118;2022-11-30T03:42:37;100968.44;;;12.84
70668;BMP280;58242;51.250;-1.118;2022-11-30T03:45:03;100966.53;;;12.85
70668;BMP280;58242;51.250;-1.118;2022-11-30T03:47:28;100962.28;;;12.84
70668;BMP280;58242;51.250;-1.118;2022-11-30T03:49:54;100957.69;;;12.84
70668;BMP280;58242;51.250;-1.118;2022-11-30T03:52:19;100971.41;;;12.83
70668;BMP280;58242;51.250;-1.118;2022-11-30T03:54:44;100976.63;;;12.80
70668;BMP280;58242;51.250;-1.118;2022-11-30T03:57:10;100979.63;;;12.78
70668;BMP280;58242;51.250;-1.118;2022-11-30T03:59:35;100984.03;;;12.74
70668;BMP280;58242;51.250;-1.118;2022-11-30T04:02:00;100982.47;;;12.73
70668;BMP280;58242;51.250;-1.118;2022-11-30T04:04:26;100985.47;;;12.72
70668;BMP280;58242;51.250;-1.118;2022-11-30T04:06:51;100989.25;;;12.71
70668;BMP280;58242;51.250;-1.118;2022-11-30T04:09:16;100982.94;;;12.67
70668;BMP280;58242;51.250;-1.118;2022-11-30T04:11:42;100978.69;;;12.66
70668;BMP280;58242;51.250;-1.118;2022-11-30T04:14:07;100976.00;;;12.66
70668;BMP280;58242;51.250;-1.118;2022-11-30T04:16:34;100978.34;;;12.67
70668;BMP280;58242;51.250;-1.118;2022-11-30T04:18:59;100977.72;;;12.70
70668;BMP280;58242;51.250;-1.118;2022-11-30T04:21:24;100983.41;;;12.69
70668;BMP280;58242;51.250;-1.118;2022-11-30T04:23:50;100987.50;;;12.66
70668;BMP280;58242;51.250;-1.118;2022-11-30T04:26:16;100985.78;;;12.62
70668;BMP280;58242;51.250;-1.118;2022-11-30T04:28:41;100987.97;;;12.60
70668;BMP280;58242;51.250;-1.118;2022-11-30T04:31:07;100998.53;;;12.57
70668;BMP280;58242;51.250;-1.118;2022-11-30T04:33:32;101002.28;;;12.56
70668;BMP280;58242;51.250;-1.118;2022-11-30T04:36:00;101000.75;;;12.55
70668;BMP280;58242;51.250;-1.118;2022-11-30T04:38:27;101000.41;;;12.56
70668;BMP280;58242;51.250;-1.118;2022-11-30T04:40:53;101007.56;;;12.61
70668;BMP280;58242;51.250;-1.118;2022-11-30T04:43:18;101010.22;;;12.61
70668;BMP280;58242;51.250;-1.118;2022-11-30T04:45:45;101015.59;;;12.61
70668;BMP280;58242;51.250;-1.118;2022-11-30T04:48:11;101019.97;;;12.57
70668;BMP280;58242;51.250;-1.118;2022-11-30T04:50:36;101010.69;;;12.54
70668;BMP280;58242;51.250;-1.118;2022-11-30T04:53:02;101019.03;;;12.53
70668;BMP280;58242;51.250;-1.118;2022-11-30T04:55:27;101015.38;;;12.49
70668;BMP280;58242;51.250;-1.118;2022-11-30T04:57:53;101017.63;;;12.47
70668;BMP280;58242;51.250;-1.118;2022-11-30T05:00:19;101014.13;;;12.47
70668;BMP280;58242;51.250;-1.118;2022-11-30T05:02:44;101017.28;;;12.48
70668;BMP280;58242;51.250;-1.118;2022-11-30T05:05:10;101022.34;;;12.50
70668;BMP280;58242;51.250;-1.118;2022-11-30T05:07:36;101022.00;;;12.51
70668;BMP280;58242;51.250;-1.118;2022-11-30T05:10:02;101017.44;;;12.52
70668;BMP280;58242;51.250;-1.118;2022-11-30T05:12:28;101015.25;;;12.54
70668;BMP280;58242;51.250;-1.118;2022-11-30T05:14:53;101018.41;;;12.56
70668;BMP280;58242;51.250;-1.118;2022-11-30T05:17:18;101017.59;;;12.55
70668;BMP280;58242;51.250;-1.118;2022-11-30T05:19:43;101014.16;;;12.55
70668;BMP280;58242;51.250;-1.118;2022-11-30T05:22:09;101022.97;;;12.55
70668;BMP280;58242;51.250;-1.118;2022-11-30T05:24:34;101017.28;;;12.57
70668;BMP280;58242;51.250;-1.118;2022-11-30T05:26:59;101025.34;;;12.57
70668;BMP280;58242;51.250;-1.118;2022-11-30T05:29:25;101024.75;;;12.60
70668;BMP280;58242;51.250;-1.118;2022-11-30T05:31:50;101023.66;;;12.61
70668;BMP280;58242;51.250;-1.118;2022-11-30T05:34:15;101040.19;;;12.63
70668;BMP280;58242;51.250;-1.118;2022-11-30T05:36:41;101038.31;;;12.63
70668;BMP280;58242;51.250;-1.118;2022-11-30T05:39:06;101035.63;;;12.63
70668;BMP280;58242;51.250;-1.118;2022-11-30T05:41:31;101044.00;;;12.62
70668;BMP280;58242;51.250;-1.118;2022-11-30T05:43:57;101040.03;;;12.59
70668;BMP280;58242;51.250;-1.118;2022-11-30T05:46:22;101052.81;;;12.54
70668;BMP280;58242;51.250;-1.118;2022-11-30T05:48:48;101057.22;;;12.50
70668;BMP280;58242;51.250;-1.118;2022-11-30T05:51:15;101044.88;;;12.49
70668;BMP280;58242;51.250;-1.118;2022-11-30T05:53:42;101048.06;;;12.51
70668;BMP280;58242;51.250;-1.118;2022-11-30T05:56:10;101043.66;;;12.55
70668;BMP280;58242;51.250;-1.118;2022-11-30T05:58:36;101046.00;;;12.56
70668;BMP280;58242;51.250;-1.118;2022-11-30T06:01:02;101045.41;;;12.59
70668;BMP280;58242;51.250;-1.118;2022-11-30T06:03:29;101048.25;;;12.63
70668;BMP280;58242;51.250;-1.118;2022-11-30T06:05:55;101049.84;;;12.64
70668;BMP280;58242;51.250;-1.118;2022-11-30T06:08:20;101044.19;;;12.65
70668;BMP280;58242;51.250;-1.118;2022-11-30T06:10:46;101039.59;;;12.66
70668;BMP280;58242;51.250;-1.118;2022-11-30T06:13:11;101044.19;;;12.65
70668;BMP280;58242;51.250;-1.118;2022-11-30T06:15:38;101050.34;;;12.66
70668;BMP280;58242;51.250;-1.118;2022-11-30T06:18:04;101049.53;;;12.65
70668;BMP280;58242;51.250;-1.118;2022-11-30T06:20:30;101052.06;;;12.62
70668;BMP280;58242;51.250;-1.118;2022-11-30T06:22:55;101049.97;;;12.59
70668;BMP280;58242;51.250;-1.118;2022-11-30T06:25:22;101052.97;;;12.57
70668;BMP280;58242;51.250;-1.118;2022-11-30T06:27:47;101058.31;;;12.57
70668;BMP280;58242;51.250;-1.118;2022-11-30T06:30:13;101059.75;;;12.55
70668;BMP280;58242;51.250;-1.118;2022-11-30T06:32:38;101067.00;;;12.54
70668;BMP280;58242;51.250;-1.118;2022-11-30T06:35:04;101070.78;;;12.53
70668;BMP280;58242;51.250;-1.118;2022-11-30T06:37:33;101068.09;;;12.53
70668;BMP280;58242;51.250;-1.118;2022-11-30T06:39:58;101073.75;;;12.52
70668;BMP280;58242;51.250;-1.118;2022-11-30T06:42:24;101067.31;;;12.53
70668;BMP280;58242;51.250;-1.118;2022-11-30T06:44:49;101068.09;;;12.53
70668;BMP280;58242;51.250;-1.118;2022-11-30T06:47:14;101070.94;;;12.57
70668;BMP280;58242;51.250;-1.118;2022-11-30T06:49:40;101072.53;;;12.58
70668;BMP280;58242;51.250;-1.118;2022-11-30T06:52:05;101067.66;;;12.60
70668;BMP280;58242;51.250;-1.118;2022-11-30T06:54:30;101073.53;;;12.62
70668;BMP280;58242;51.250;-1.118;2022-11-30T06:56:56;101066.28;;;12.62
70668;BMP280;58242;51.250;-1.118;2022-11-30T06:59:22;101075.88;;;12.63
70668;BMP280;58242;51.250;-1.118;2022-11-30T07:01:47;101067.81;;;12.63
70668;BMP280;58242;51.250;-1.118;2022-11-30T07:04:13;101073.97;;;12.64
70668;BMP280;58242;51.250;-1.118;2022-11-30T07:06:38;101072.41;;;12.63
70668;BMP280;58242;51.250;-1.118;2022-11-30T07:09:04;101083.13;;;12.63
70668;BMP280;58242;51.250;-1.118;2022-11-30T07:11:30;101091.19;;;12.63
70668;BMP280;58242;51.250;-1.118;2022-11-30T07:13:57;101087.72;;;12.62
70668;BMP280;58242;51.250;-1.118;2022-11-30T07:16:22;101096.53;;;12.63
70668;BMP280;58242;51.250;-1.118;2022-11-30T07:18:48;101097.66;;;12.62
70668;BMP280;58242;51.250;-1.118;2022-11-30T07:21:13;101096.88;;;12.61
70668;BMP280;58242;51.250;-1.118;2022-11-30T07:23:38;101095.28;;;12.60
70668;BMP280;58242;51.250;-1.118;2022-11-30T07:26:23;101102.53;;;12.60
70668;BMP280;58242;51.250;-1.118;2022-11-30T07:28:49;101094.50;;;12.60
70668;BMP280;58242;51.250;-1.118;2022-11-30T07:31:23;101104.91;;;12.61
70668;BMP280;58242;51.250;-1.118;2022-11-30T07:33:50;101102.25;;;12.61
70668;BMP280;58242;51.250;-1.118;2022-11-30T07:36:16;101108.41;;;12.62
70668;BMP280;58242;51.250;-1.118;2022-11-30T07:38:42;101104.13;;;12.61
70668;BMP280;58242;51.250;-1.118;2022-11-30T07:41:08;101107.59;;;12.61
70668;BMP280;58242;51.250;-1.118;2022-11-30T07:43:34;101116.44;;;12.62
70668;BMP280;58242;51.250;-1.118;2022-11-30T07:46:00;101120.69;;;12.63
70668;BMP280;58242;51.250;-1.118;2022-11-30T07:48:25;101120.69;;;12.63
70668;BMP280;58242;51.250;-1.118;2022-11-30T07:50:50;101129.53;;;12.63
70668;BMP280;58242;51.250;-1.118;2022-11-30T07:53:16;101131.41;;;12.63
70668;BMP280;58242;51.250;-1.118;2022-11-30T07:55:41;101129.84;;;12.62
70668;BMP280;58242;51.250;-1.118;2022-11-30T07:58:07;101132.53;;;12.62
70668;BMP280;58242;51.250;-1.118;2022-11-30T08:00:34;101134.09;;;12.63
70668;BMP280;58242;51.250;-1.118;2022-11-30T08:03:00;101146.41;;;12.64
70668;BMP280;58242;51.250;-1.118;2022-11-30T08:05:25;101144.53;;;12.64
70668;BMP280;58242;51.250;-1.118;2022-11-30T08:07:54;101138.38;;;12.64
70668;BMP280;58242;51.250;-1.118;2022-11-30T08:10:20;101143.72;;;12.64
70668;BMP280;58242;51.250;-1.118;2022-11-30T08:12:46;101141.06;;;12.64
70668;BMP280;58242;51.250;-1.118;2022-11-30T08:15:12;101133.78;;;12.64
70668;BMP280;58242;51.250;-1.118;2022-11-30T08:17:38;101142.66;;;12.65
70668;BMP280;58242;51.250;-1.118;2022-11-30T08:20:05;101141.84;;;12.64
70668;BMP280;58242;51.250;-1.118;2022-11-30T08:22:31;101145.31;;;12.65
70668;BMP280;58242;51.250;-1.118;2022-11-30T08:24:56;101143.72;;;12.64
70668;BMP280;58242;51.250;-1.118;2022-11-30T08:27:22;101148.81;;;12.65
70668;BMP280;58242;51.250;-1.118;2022-11-30T08:29:47;101151.78;;;12.64
70668;BMP280;58242;51.250;-1.118;2022-11-30T08:32:12;101149.91;;;12.64
70668;BMP280;58242;51.250;-1.118;2022-11-30T08:34:37;101145.31;;;12.65
70668;BMP280;58242;51.250;-1.118;2022-11-30T08:37:03;101146.13;;;12.65
70668;BMP280;58242;51.250;-1.118;2022-11-30T08:39:28;101147.38;;;12.67
70668;BMP280;58242;51.250;-1.118;2022-11-30T08:41:56;101144.06;;;12.70
70668;BMP280;58242;51.250;-1.118;2022-11-30T08:44:21;101142.19;;;12.71
70668;BMP280;58242;51.250;-1.118;2022-11-30T08:46:46;101147.25;;;12.72
70668;BMP280;58242;51.250;-1.118;2022-11-30T08:49:12;101148.50;;;12.75
70668;BMP280;58242;51.250;-1.118;2022-11-30T08:51:37;101146.78;;;12.79
70668;BMP280;58242;51.250;-1.118;2022-11-30T08:54:02;101149.31;;;12.83
70668;BMP280;58242;51.250;-1.118;2022-11-30T08:56:27;101141.94;;;12.89
70668;BMP280;58242;51.250;-1.118;2022-11-30T08:58:53;101147.94;;;12.94
70668;BMP280;58242;51.250;-1.118;2022-11-30T09:01:23;101150.78;;;12.98
70668;BMP280;58242;51.250;-1.118;2022-11-30T09:03:52;101152.53;;;13.02
70668;BMP280;58242;51.250;-1.118;2022-11-30T09:06:22;101154.56;;;13.05
70668;BMP280;58242;51.250;-1.118;2022-11-30T09:08:49;101162.00;;;13.08
70668;BMP280;58242;51.250;-1.118;2022-11-30T09:13:45;101157.56;;;13.12
70668;BMP280;58242;51.250;-1.118;2022-11-30T09:16:13;101154.59;;;13.13
70668;BMP280;58242;51.250;-1.118;2022-11-30T09:18:39;101157.44;;;13.17
70668;BMP280;58242;51.250;-1.118;2022-11-30T09:21:06;101149.53;;;13.20
70668;BMP280;58242;51.250;-1.118;2022-11-30T09:23:33;101163.13;;;13.23
70668;BMP280;58242;51.250;-1.118;2022-11-30T09:26:01;101159.19;;;13.29
70668;BMP280;58242;51.250;-1.118;2022-11-30T09:28:27;101164.22;;;13.31
70668;BMP280;58242;51.250;-1.118;2022-11-30T09:31:06;101179.75;;;13.34
70668;BMP280;58242;51.250;-1.118;2022-11-30T09:33:32;101174.84;;;13.35
70668;BMP280;58242;51.250;-1.118;2022-11-30T09:35:59;101178.47;;;13.39
70668;BMP280;58242;51.250;-1.118;2022-11-30T09:38:25;101182.09;;;13.43
70668;BMP280;58242;51.250;-1.118;2022-11-30T09:40:56;101190.03;;;13.48
70668;BMP280;58242;51.250;-1.118;2022-11-30T09:43:40;101191.59;;;13.49
70668;BMP280;58242;51.250;-1.118;2022-11-30T09:46:08;101189.84;;;13.53
70668;BMP280;58242;51.250;-1.118;2022-11-30T09:49:00;101193.47;;;13.57
70668;BMP280;58242;51.250;-1.118;2022-11-30T09:51:33;101197.13;;;13.61
70668;BMP280;58242;51.250;-1.118;2022-11-30T09:54:05;101209.16;;;13.63
70668;BMP280;58242;51.250;-1.118;2022-11-30T09:56:37;101208.06;;;13.64
70668;BMP280;58242;51.250;-1.118;2022-11-30T09:59:14;101204.56;;;13.64
70668;BMP280;58242;51.250;-1.118;2022-11-30T10:01:42;101205.53;;;13.68
70668;BMP280;58242;51.250;-1.118;2022-11-30T10:04:20;101211.34;;;13.69
70668;BMP280;58242;51.250;-1.118;2022-11-30T10:06:55;101205.66;;;13.71
70668;BMP280;58242;51.250;-1.118;2022-11-30T10:12:13;101215.00;;;13.73
70668;BMP280;58242;51.250;-1.118;2022-11-30T10:26:31;101218.03;;;13.88
70668;BMP280;58242;51.250;-1.118;2022-11-30T10:29:06;101218.16;;;13.92
70668;BMP280;58242;51.250;-1.118;2022-11-30T10:31:37;101214.06;;;13.94
70668;BMP280;58242;51.250;-1.118;2022-11-30T10:34:20;101213.09;;;13.99
70668;BMP280;58242;51.250;-1.118;2022-11-30T10:37:18;101222.44;;;14.01
70668;BMP280;58242;51.250;-1.118;2022-11-30T10:40:33;101223.41;;;14.05
70668;BMP280;58242;51.250;-1.118;2022-11-30T10:42:41;101219.25;;;14.07
70668;BMP280;58242;51.250;-1.118;2022-11-30T10:45:22;101220.84;;;14.08
70668;BMP280;58242;51.250;-1.118;2022-11-30T10:48:13;101213.72;;;14.12
70668;BMP280;58242;51.250;-1.118;2022-11-30T10:50:40;101213.53;;;14.17
70668;BMP280;58242;51.250;-1.118;2022-11-30T10:53:09;101211.19;;;14.24
70668;BMP280;58242;51.250;-1.118;2022-11-30T10:55:37;101204.66;;;14.25
70668;BMP280;58242;51.250;-1.118;2022-11-30T10:58:11;101199.25;;;14.41
70668;BMP280;58242;51.250;-1.118;2022-11-30T11:00:49;101202.69;;;14.58
70668;BMP280;58242;51.250;-1.118;2022-11-30T11:03:24;101199.91;;;14.75
70668;BMP280;58242;51.250;-1.118;2022-11-30T11:08:29;101215.50;;;14.98
70668;BMP280;58242;51.250;-1.118;2022-11-30T11:10:54;101206.16;;;15.04
70668;BMP280;58242;51.250;-1.118;2022-11-30T11:13:40;101216.13;;;15.03
70668;BMP280;58242;51.250;-1.118;2022-11-30T11:16:11;101209.16;;;15.02
70668;BMP280;58242;51.250;-1.118;2022-11-30T11:18:54;101207.56;;;15.01
70668;BMP280;58242;51.250;-1.118;2022-11-30T11:21:21;101207.56;;;15.01
70668;BMP280;58242;51.250;-1.118;2022-11-30T11:23:49;101225.31;;;15.02
70668;BMP280;58242;51.250;-1.118;2022-11-30T11:26:17;101223.88;;;15.05
70668;BMP280;58242;51.250;-1.118;2022-11-30T11:28:46;101214.38;;;15.07
70668;BMP280;58242;51.250;-1.118;2022-11-30T11:33:52;101221.00;;;15.09
70668;BMP280;58242;51.250;-1.118;2022-11-30T11:36:24;101216.72;;;15.08
70668;BMP280;58242;51.250;-1.118;2022-11-30T11:38:49;101219.88;;;15.10
70668;BMP280;58242;51.250;-1.118;2022-11-30T11:41:28;101218.00;;;15.11
70668;BMP280;58242;51.250;-1.118;2022-11-30T11:43:57;101216.06;;;15.11
70668;BMP280;58242;51.250;-1.118;2022-11-30T11:46:23;101225.41;;;15.14
70668;BMP280;58242;51.250;-1.118;2022-11-30T11:48:57;101224.75;;;15.17
70668;BMP280;58242;51.250;-1.118;2022-11-30T11:51:34;101223.00;;;15.21
70668;BMP280;58242;51.250;-1.118;2022-11-30T11:54:21;101223.13;;;15.24
70668;BMP280;58242;51.250;-1.118;2022-11-30T11:56:48;101227.22;;;15.30
70668;BMP280;58242;51.250;-1.118;2022-11-30T11:59:20;101223.88;;;15.33
70668;BMP280;58242;51.250;-1.118;2022-11-30T12:04:47;101221.19;;;15.33
70668;BMP280;58242;51.250;-1.118;2022-11-30T12:07:44;101228.91;;;15.34
70668;BMP280;58242;51.250;-1.118;2022-11-30T12:12:47;101229.97;;;15.41
70668;BMP280;58242;51.250;-1.118;2022-11-30T12:15:13;101233.28;;;15.47
70668;BMP280;58242;51.250;-1.118;2022-11-30T12:20:44;101228.16;;;15.54
70668;BMP280;58242;51.250;-1.118;2022-11-30T12:26:28;101244.88;;;15.67
70668;BMP280;58242;51.250;-1.118;2022-11-30T12:29:13;101241.31;;;15.75
70668;BMP280;58242;51.250;-1.118;2022-11-30T12:40:42;101242.63;;;15.89
70668;BMP280;58242;51.250;-1.118;2022-11-30T12:43:24;101245.59;;;15.96
70668;BMP280;58242;51.250;-1.118;2022-11-30T12:46:01;101237.78;;;16.03
70668;BMP280;58242;51.250;-1.118;2022-11-30T12:48:40;101243.88;;;16.11
70668;BMP280;58242;51.250;-1.118;2022-11-30T12:56:54;101242.66;;;16.52
70668;BMP280;58242;51.250;-1.118;2022-11-30T12:59:40;101234.94;;;16.74
70668;BMP280;58242;51.250;-1.118;2022-11-30T13:05:08;101231.41;;;17.17
70668;BMP280;58242;51.250;-1.118;2022-11-30T13:08:14;101242.31;;;17.32
70668;BMP280;58242;51.250;-1.118;2022-11-30T13:10:39;101239.03;;;17.38
70668;BMP280;58242;51.250;-1.118;2022-11-30T13:13:13;101234.41;;;17.39
70668;BMP280;58242;51.250;-1.118;2022-11-30T13:15:40;101235.88;;;17.36
70668;BMP280;58242;51.250;-1.118;2022-11-30T13:18:09;101236.69;;;17.37
70668;BMP280;58242;51.250;-1.118;2022-11-30T13:25:37;101234.88;;;17.29
70668;BMP280;58242;51.250;-1.118;2022-11-30T13:31:02;101232.28;;;17.21
70668;BMP280;58242;51.250;-1.118;2022-11-30T13:33:42;101238.81;;;17.20
70668;BMP280;58242;51.250;-1.118;2022-11-30T13:41:40;101238.03;;;17.08
70668;BMP280;58242;51.250;-1.118;2022-11-30T13:46:48;101238.94;;;17.12
70668;BMP280;58242;51.250;-1.118;2022-11-30T13:49:20;101238.72;;;17.16
70668;BMP280;58242;51.250;-1.118;2022-11-30T13:51:46;101246.13;;;17.19
70668;BMP280;58242;51.250;-1.118;2022-11-30T13:59:54;101233.09;;;17.21
70668;BMP280;58242;51.250;-1.118;2022-11-30T14:07:38;101240.19;;;17.26
70668;BMP280;58242;51.250;-1.118;2022-11-30T14:13:02;101234.88;;;17.17
70668;BMP280;58242;51.250;-1.118;2022-11-30T14:21:11;101230.22;;;16.83
70668;BMP280;58242;51.250;-1.118;2022-11-30T14:26:20;101228.16;;;16.57
70668;BMP280;58242;51.250;-1.118;2022-11-30T14:29:16;101226.00;;;16.39
70668;BMP280;58242;51.250;-1.118;2022-11-30T14:31:53;101225.03;;;16.23
70668;BMP280;58242;51.250;-1.118;2022-11-30T14:34:27;101226.59;;;16.12
70668;BMP280;58242;51.250;-1.118;2022-11-30T14:36:57;101231.69;;;16.06
70668;BMP280;58242;51.250;-1.118;2022-11-30T14:39:44;101226.72;;;15.96
70668;BMP280;58242;51.250;-1.118;2022-11-30T14:42:26;101227.56;;;15.88
70668;BMP280;58242;51.250;-1.118;2022-11-30T14:44:52;101244.47;;;15.77
70668;BMP280;58242;51.250;-1.118;2022-11-30T14:47:29;101232.38;;;15.63
70668;BMP280;58242;51.250;-1.118;2022-11-30T14:49:59;101233.41;;;15.50
70668;BMP280;58242;51.250;-1.118;2022-11-30T14:55:32;101250.06;;;15.24
70668;BMP280;58242;51.250;-1.118;2022-11-30T15:00:35;101249.03;;;15.08
70668;BMP280;58242;51.250;-1.118;2022-11-30T15:03:02;101247.66;;;15.03
70668;BMP280;58242;51.250;-1.118;2022-11-30T15:05:28;101255.91;;;14.98
70668;BMP280;58242;51.250;-1.118;2022-11-30T15:07:54;101251.97;;;14.95
70668;BMP280;58242;51.250;-1.118;2022-11-30T15:10:31;101250.38;;;14.94
70668;BMP280;58242;51.250;-1.118;2022-11-30T15:12:59;101248.94;;;14.97
70668;BMP280;58242;51.250;-1.118;2022-11-30T15:15:26;101253.69;;;15.00
70668;BMP280;58242;51.250;-1.118;2022-11-30T15:17:56;101251.47;;;15.02
70668;BMP280;58242;51.250;-1.118;2022-11-30T15:20:35;101256.19;;;15.05
70668;BMP280;58242;51.250;-1.118;2022-11-30T15:23:01;101259.34;;;15.06
70668;BMP280;58242;51.250;-1.118;2022-11-30T15:25:32;101255.69;;;15.11
70668;BMP280;58242;51.250;-1.118;2022-11-30T15:27:59;101258.06;;;15.12
70668;BMP280;58242;51.250;-1.118;2022-11-30T15:30:24;101262.78;;;15.15
70668;BMP280;58242;51.250;-1.118;2022-11-30T15:32:50;101261.69;;;15.16
70668;BMP280;58242;51.250;-1.118;2022-11-30T15:35:23;101271.03;;;15.19
70668;BMP280;58242;51.250;-1.118;2022-11-30T15:37:49;101272.28;;;15.21